Alameda, CA (94501)

6:39 PM PDT on March 29, 2015 (GMT -0700)
Shoreline | | Change Station
CLOSE
Current Station
Personal Weather Station
Location: Alameda, CA
Elevation: 10 ft
Nearby Weather Stations

Elev 10 ft 37.76 °N, 122.26 °W | Updated 5 seconds ago

Clear
Clear
69.6 °F
Feels Like 69.6 °F
N
2.7
Wind Variable Wind from ENE
Gusts 4.9 mph

Today
High -- | Low -- °F
--% Chance of Precip.
Yesterday
High -- | Low -- °F
Precip. -- in
6:59 AM 7:29 PM
Waxing Gibbous, 76% visible
Pressure 30.02 in
Visibility 10.0 miles
Clouds Few 25000 ft
Dew Point 49 °F
Humidity 47%
Rainfall 0.00 in
Snow Depth Not available.
UV 1 out of 12
Pollen 8.80 out of 12
Air Quality Not available.
Flu Activity Not available.
METAR KOAK 300053Z 29016KT 10SM FEW250 19/09 A3002 RMK AO2 SLP164 T01940094

More Conditions Fewer Conditions

Pressure 30.02 in
Visibility 10.0 miles
Clouds Few 25000 ft
Dew Point 49 °F
Humidity 47%
Rainfall 0.00 in
Snow Depth Not available.
UV 1 out of 12
Pollen 8.80 out of 12
Air Quality Not available.
Flu Activity Not available.
METAR KOAK 300053Z 29016KT 10SM FEW250 19/09 A3002 RMK AO2 SLP164 T01940094

More Conditions Fewer Conditions

10-Day Weather Forecast

Almanac

Astronomy

Mar. 29, 2015 Rise Set
Actual Time
Civil Twilight
Nautical Twilight
Astronomical Twilight
Moon
Length of Visible Light
Length of Day
Tomorrow will be .
, % of the Moon is Illuminated

Today's Extremes

State Highs State Lows

Community

WunderPhotos

Upload Photos

1,809,392 photos uploaded!

WunderBlogs® & News

Nearby

Air Quality

  Air Quality AQ Index Pollutant
Not available.

Snow Depth

Station Depth Elevation

Earthquake Activity

City Distance Mag. Time & Date
Minimum magnitude displayed is 2.5.

Coastal Water Temperatures

Place Temperature

Stations

Nearby Weather Stations

Station Location Temp. Windchill Dew Point Humidity Wind Precip. Elev Updated Type